createdAt,value
2023-02-19T00:00:20.138Z,97747.91
2023-02-19T00:05:21.972Z,97743.03
2023-02-19T00:10:23.749Z,97743.19
2023-02-19T00:15:25.657Z,97743.03
2023-02-19T00:20:27.615Z,97732.19
2023-02-19T00:25:29.438Z,97716.81
2023-02-19T00:30:31.533Z,97721.34
2023-02-19T00:35:36.606Z,97716.50
2023-02-19T00:40:39.396Z,97708.09
2023-02-19T00:45:41.286Z,97709.84
2023-02-19T00:50:43.590Z,97703.19
2023-02-19T00:55:45.379Z,97693.69
2023-02-19T01:00:47.362Z,97696.41
2023-02-19T01:05:52.729Z,97689.44
2023-02-19T01:10:54.588Z,97681.47
2023-02-19T01:16:12.742Z,97675.44
2023-02-19T01:21:18.285Z,97649.25
2023-02-19T01:26:23.578Z,97636.78
2023-02-19T01:31:25.896Z,97621.25
2023-02-19T01:36:29.656Z,97600.56
2023-02-19T01:41:34.411Z,97603.16
2023-02-19T01:46:38.925Z,97589.25
2023-02-19T01:51:49.363Z,97564.84
2023-02-19T01:56:55.397Z,97576.00
2023-02-19T02:01:57.309Z,97568.56
2023-02-19T02:07:02.417Z,97565.81
2023-02-19T02:12:04.638Z,97551.09
2023-02-19T02:17:18.847Z,97546.72
2023-02-19T02:22:33.905Z,97530.41
2023-02-19T02:27:52.441Z,97527.81
2023-02-19T02:32:58.325Z,97519.88
2023-02-19T02:38:05.241Z,97509.69
2023-02-19T02:43:07.461Z,97498.53
2023-02-19T02:48:21.405Z,97495.16
2023-02-19T02:53:51.912Z,97499.97
2023-02-19T02:58:56.827Z,97502.44
2023-02-19T03:04:05.105Z,97491.91
2023-02-19T03:09:16.156Z,97481.22
2023-02-19T03:14:59.955Z,97479.09
2023-02-19T03:20:07.552Z,97461.47
2023-02-19T03:25:33.327Z,97469.38
2023-02-19T03:30:40.884Z,97471.66
2023-02-19T03:36:05.853Z,97452.06
2023-02-19T03:41:27.310Z,97453.47
2023-02-19T03:47:04.580Z,97443.75
2023-02-19T03:52:31.065Z,97442.44
2023-02-19T03:57:56.288Z,97452.94
2023-02-19T04:03:16.877Z,97446.28
2023-02-19T04:08:22.369Z,97453.41
2023-02-19T04:13:38.765Z,97432.97
2023-02-19T04:18:45.251Z,97433.06
2023-02-19T04:23:48.010Z,97431.47
2023-02-19T04:28:49.839Z,97440.41
2023-02-19T04:33:51.636Z,97434.06
2023-02-19T04:38:53.451Z,97449.47
2023-02-19T04:43:55.289Z,97434.06
2023-02-19T04:48:57.071Z,97428.09
2023-02-19T04:53:58.907Z,97445.59
2023-02-19T04:59:00.756Z,97444.13
2023-02-19T05:04:04.622Z,97434.75
2023-02-19T05:09:06.398Z,97428.88
2023-02-19T05:14:08.258Z,97420.63
2023-02-19T05:19:13.748Z,97428.38
2023-02-19T05:24:15.607Z,97426.09
2023-02-19T05:29:17.434Z,97445.38
2023-02-19T05:34:19.209Z,97436.69
2023-02-19T05:39:21.017Z,97441.09
2023-02-19T05:44:22.879Z,97447.72
2023-02-19T05:49:24.725Z,97458.56
2023-02-19T05:54:29.549Z,97465.00
2023-02-19T05:59:31.675Z,97480.72
2023-02-19T06:04:33.528Z,97501.44
2023-02-19T06:09:35.319Z,97494.97
2023-02-19T06:14:37.097Z,97511.78
2023-02-19T06:19:38.887Z,97525.38
2023-02-19T06:24:40.679Z,97546.41
2023-02-19T06:29:42.534Z,97542.50
2023-02-19T06:34:44.303Z,97564.69
2023-02-19T06:39:46.121Z,97552.22
2023-02-19T06:44:47.916Z,97539.94
2023-02-19T06:49:49.715Z,97542.22
2023-02-19T06:54:51.537Z,97559.50
2023-02-19T06:59:53.339Z,97563.19
2023-02-19T07:04:55.137Z,97576.28
2023-02-19T07:09:56.941Z,97572.72
2023-02-19T07:14:58.744Z,97573.19
2023-02-19T07:20:00.637Z,97583.38
2023-02-19T07:25:02.450Z,97583.38
2023-02-19T07:30:04.805Z,97599.91
2023-02-19T07:35:07.108Z,97606.22
2023-02-19T07:40:09.098Z,97609.78
2023-02-19T07:45:10.938Z,97611.72
2023-02-19T07:50:14.046Z,97621.22
2023-02-19T07:55:15.923Z,97623.50
2023-02-19T08:00:19.186Z,97622.50
2023-02-19T08:05:20.953Z,97630.75
2023-02-19T08:10:41.715Z,97637.84
2023-02-19T08:15:43.910Z,97638.63
2023-02-19T08:20:46.215Z,97650.91
2023-02-19T08:25:49.751Z,97642.81
2023-02-19T08:30:51.884Z,97659.34
2023-02-19T08:35:53.742Z,97661.78
2023-02-19T08:40:55.515Z,97670.19
2023-02-19T08:45:57.382Z,97687.50
2023-02-19T08:51:03.891Z,97701.38
2023-02-19T08:56:12.056Z,97735.84
2023-02-19T09:01:16.447Z,97773.38
2023-02-19T09:06:20.458Z,97778.13
2023-02-19T09:11:22.299Z,97796.88
2023-02-19T09:16:24.126Z,97823.78
2023-02-19T09:21:26.001Z,97830.47
2023-02-19T09:26:27.776Z,97839.16
2023-02-19T09:31:29.648Z,97847.69
2023-02-19T09:36:33.470Z,97856.91
2023-02-19T09:41:47.119Z,97871.19
2023-02-19T09:46:51.781Z,97894.25
2023-02-19T09:51:59.083Z,97895.50
2023-02-19T09:57:02.892Z,97904.03
2023-02-19T10:02:30.903Z,97924.50
2023-02-19T10:07:43.470Z,97948.34
2023-02-19T10:12:51.227Z,97961.22
2023-02-19T10:17:53.146Z,97979.63
2023-02-19T10:23:02.489Z,97980.69
2023-02-19T10:28:06.350Z,97993.50
2023-02-19T10:33:14.901Z,98004.38
2023-02-19T10:38:18.781Z,98014.47
2023-02-19T10:43:31.197Z,98035.88
2023-02-19T10:48:37.447Z,98040.34
2023-02-19T10:53:50.691Z,98052.53
2023-02-19T10:58:53.073Z,98072.16
2023-02-19T11:04:18.006Z,98069.75
2023-02-19T11:09:31.027Z,98076.75
2023-02-19T11:14:34.420Z,98080.81
2023-02-19T11:19:42.960Z,98086.25
2023-02-19T11:24:49.539Z,98104.59
2023-02-19T11:29:51.411Z,98096.53
2023-02-19T11:35:23.120Z,98096.00
2023-02-19T11:41:11.698Z,98106.84
2023-02-19T11:46:18.330Z,98127.44
2023-02-19T11:52:00.342Z,98132.03
2023-02-19T11:57:17.195Z,98134.19
2023-02-19T12:02:57.627Z,98142.22
2023-02-19T12:08:15.436Z,98140.44
2023-02-19T12:13:38.118Z,98144.72
2023-02-19T12:18:45.775Z,98152.09
2023-02-19T12:23:47.528Z,98153.75
2023-02-19T12:29:07.922Z,98159.34
2023-02-19T12:34:24.056Z,98158.66
2023-02-19T12:39:58.421Z,98173.19
2023-02-19T12:45:16.124Z,98182.16
2023-02-19T12:50:27.190Z,98180.81
2023-02-19T12:55:34.193Z,98179.47
2023-02-19T13:00:41.399Z,98180.25
2023-02-19T13:05:55.870Z,98195.50
2023-02-19T13:11:09.908Z,98195.75
2023-02-19T13:16:18.632Z,98193.59
2023-02-19T13:21:42.716Z,98199.84
2023-02-19T13:27:04.756Z,98202.03
2023-02-19T13:32:06.641Z,98208.00
2023-02-19T13:37:09.756Z,98218.84
2023-02-19T13:42:31.215Z,98209.31
2023-02-19T13:48:00.353Z,98215.47
2023-02-19T13:53:22.667Z,98219.41
2023-02-19T13:58:33.789Z,98233.81
2023-02-19T14:03:54.253Z,98237.47
2023-02-19T14:08:58.504Z,98235.53
2023-02-19T14:14:06.527Z,98238.97
2023-02-19T14:19:15.998Z,98249.56
2023-02-19T14:24:17.883Z,98246.59
2023-02-19T14:29:19.859Z,98257.72
2023-02-19T14:34:26.998Z,98253.38
2023-02-19T14:39:35.275Z,98258.41
2023-02-19T14:44:59.063Z,98257.19
2023-02-19T14:50:02.957Z,98264.13
2023-02-19T14:55:13.440Z,98253.22
2023-02-19T15:00:39.913Z,98276.75
2023-02-19T15:05:44.933Z,98285.47
2023-02-19T15:10:47.056Z,98278.97
2023-02-19T15:15:49.774Z,98291.06
2023-02-19T15:20:58.649Z,98281.53
2023-02-19T15:26:00.521Z,98287.31
2023-02-19T15:31:03.319Z,98288.84
2023-02-19T15:36:07.840Z,98297.78
2023-02-19T15:41:21.251Z,98303.19
2023-02-19T15:46:25.513Z,98308.53
2023-02-19T15:51:37.658Z,98311.81
2023-02-19T15:56:45.447Z,98305.28
2023-02-19T16:01:48.046Z,98309.97
2023-02-19T16:06:56.186Z,98309.19
2023-02-19T16:12:00.730Z,98312.16
2023-02-19T16:17:12.139Z,98317.91
2023-02-19T16:22:18.768Z,98329.31
2023-02-19T16:27:46.908Z,98328.59
2023-02-19T16:32:48.745Z,98343.16
2023-02-19T16:38:00.089Z,98342.94
2023-02-19T16:43:13.983Z,98357.47
2023-02-19T16:48:23.644Z,98361.88
2023-02-19T16:53:25.533Z,98369.00
2023-02-19T16:58:27.473Z,98378.50
2023-02-19T17:03:29.320Z,98388.25
2023-02-19T17:08:46.371Z,98406.72
2023-02-19T17:13:48.202Z,98408.34
2023-02-19T17:18:50.914Z,98402.22
2023-02-19T17:23:54.036Z,98419.59
2023-02-19T17:28:57.282Z,98419.72
2023-02-19T17:33:59.145Z,98424.47
2023-02-19T17:39:02.956Z,98428.19
2023-02-19T17:44:04.780Z,98428.94
2023-02-19T17:49:07.555Z,98428.13
2023-02-19T17:54:09.509Z,98426.84
2023-02-19T17:59:11.731Z,98427.69
2023-02-19T18:04:13.601Z,98439.94
2023-02-19T18:09:18.091Z,98436.84
2023-02-19T18:14:20.132Z,98437.94
2023-02-19T18:19:22.922Z,98447.34
2023-02-19T18:24:24.776Z,98459.69
2023-02-19T18:29:28.962Z,98454.09
2023-02-19T18:34:30.848Z,98454.81
2023-02-19T18:39:33.202Z,98459.50
2023-02-19T18:44:35.036Z,98458.13
2023-02-19T18:49:36.952Z,98464.25
2023-02-19T18:54:38.910Z,98477.16
2023-02-19T18:59:41.902Z,98463.25
2023-02-19T19:04:49.228Z,98469.47
2023-02-19T19:09:51.079Z,98464.56
2023-02-19T19:14:53.392Z,98471.81
2023-02-19T19:19:56.431Z,98469.34
2023-02-19T19:24:58.230Z,98470.13
2023-02-19T19:30:00.277Z,98478.72
2023-02-19T19:35:02.191Z,98478.72
2023-02-19T19:40:04.372Z,98484.59
2023-02-19T19:45:06.897Z,98487.84
2023-02-19T19:50:09.621Z,98486.13
2023-02-19T19:55:11.548Z,98477.47
2023-02-19T20:00:17.713Z,98481.50
2023-02-19T20:05:19.629Z,98483.94
2023-02-19T20:10:21.587Z,98479.38
2023-02-19T20:15:23.743Z,98473.91
2023-02-19T20:20:25.533Z,98458.56
2023-02-19T20:25:27.542Z,98459.03
2023-02-19T20:30:29.404Z,98462.22
2023-02-19T20:35:31.899Z,98465.44
2023-02-19T20:40:33.901Z,98470.06
2023-02-19T20:45:35.749Z,98471.13
2023-02-19T20:50:37.552Z,98477.13
2023-02-19T20:55:39.476Z,98475.69
2023-02-19T21:00:41.345Z,98473.19
2023-02-19T21:05:43.409Z,98484.59
2023-02-19T21:10:46.474Z,98484.25
2023-02-19T21:15:48.305Z,98492.66
2023-02-19T21:20:50.097Z,98495.06
2023-02-19T21:25:54.440Z,98501.94
2023-02-19T21:30:56.510Z,98492.44
2023-02-19T21:35:58.621Z,98488.31
2023-02-19T21:41:00.456Z,98492.13
2023-02-19T21:46:02.317Z,98510.78
2023-02-19T21:51:04.315Z,98507.44
2023-02-19T21:56:06.450Z,98512.75
2023-02-19T22:01:08.809Z,98508.84
2023-02-19T22:06:10.926Z,98503.75
2023-02-19T22:11:12.911Z,98493.25
2023-02-19T22:16:16.339Z,98490.03
2023-02-19T22:21:19.026Z,98490.81
2023-02-19T22:26:26.768Z,98476.94
2023-02-19T22:31:28.827Z,98479.72
2023-02-19T22:36:33.303Z,98475.53
2023-02-19T22:41:35.591Z,98481.09
2023-02-19T22:46:37.522Z,98482.91
2023-02-19T22:51:46.449Z,98482.41
2023-02-19T22:56:48.264Z,98470.13
2023-02-19T23:01:50.559Z,98471.25
2023-02-19T23:06:52.518Z,98466.94
2023-02-19T23:12:02.099Z,98459.28
2023-02-19T23:17:04.060Z,98457.00
2023-02-19T23:22:05.985Z,98458.75
2023-02-19T23:27:07.894Z,98457.34
2023-02-19T23:32:09.756Z,98460.75
2023-02-19T23:37:11.564Z,98438.00
2023-02-19T23:42:16.667Z,98430.78
2023-02-19T23:47:18.728Z,98427.66
2023-02-19T23:52:20.629Z,98425.22
2023-02-19T23:57:22.411Z,98418.88
